Tuesday, December 18, 2018, 12:53 PM EST
Back to Local

KMLT, Millinocket Municipal Airport

Location: Millinocket, ME, United States Lat: 45.65
Local Time: 12:53 PM EST (17:53 GMT) Lon: -68.7
Time Zone: US/Eastern Elev: 406 ft

Show me the last for .
Show Decoded

2018-12-18 11:53 METAR KMLT 181653Z AUTO 31015G27KT 9SM SCT035 M04/M10 A2961 RMK AO2 PK WND
                 33027/1644 SLP037 T10441100 =
2018-12-18 10:53 METAR KMLT 181553Z AUTO 32015G23KT 280V340 3SM HZ FEW031 BKN110 M06/M11 A2960
                 RMK AO2 SLP035 T10561106 =
2018-12-18 09:53 METAR KMLT 181453Z AUTO 30013G21KT 10SM BKN033 OVC090 M06/M11 A2960 RMK AO2 PK
                 WND 32027/1359 UPE03 SLP035 P0000 60000 T10561106 51033 =
2018-12-18 08:53 METAR KMLT 181353Z AUTO 31020G29KT 5SM UP OVC095 M06/M10 A2958 RMK AO2 PK WND
                 29029/1347 UPB53 SLP026 P0000 T10561100 =
2018-12-18 07:53 METAR KMLT 181253Z AUTO 31019G25KT 3SM HZ FEW038 BKN080 OVC095 M06/M10 A2954 RMK
                 AO2 PK WND 32027/1236 SNE42 SLP013 P0000 T10611100 =
2018-12-18 07:39 METAR KMLT 181239Z AUTO 31012G27KT 3SM -SN BKN034 OVC080 M06/M09 A2953 RMK AO2
                 PK WND 32027/1236 P0000 T10611094 =
2018-12-18 07:26 METAR KMLT 181226Z AUTO 31016G24KT 2SM -SN OVC032 M06/M09 A2952 RMK AO2 P0000
                 T10611094 =
2018-12-18 07:06 METAR KMLT 181206Z AUTO 31017G25KT 2 1/2SM -SN OVC028 M06/M09 A2951 RMK AO2
                 P0000 T10561094 =
2018-12-18 06:53 METAR KMLT 181153Z AUTO 31017G27KT 3SM -SN OVC034 M06/M09 A2950 RMK AO2 PK WND
                 30027/1149 SNE09B34 SLP002 P0000 60000 70006 T10561094 11011 21056 53033 =
2018-12-18 05:53 METAR KMLT 181053Z AUTO 31015G26KT 3SM -SN OVC049 M06/M09 A2947 RMK AO2 PK WND
                 30026/1052 SLP989 P0000 T10561089 =
2018-12-18 05:44 METAR KMLT 181044Z AUTO 31017G24KT 3SM -SN OVC047 M06/M09 A2946 RMK AO2 P0000
                 T10561089 =
2018-12-18 05:30 METAR KMLT 181030Z AUTO 30015G22KT 2SM -SN OVC041 M05/M08 A2945 RMK AO2 P0000
                 T10501083 =
2018-12-18 05:10 METAR KMLT 181010Z AUTO 31015G23KT 1 1/2SM -SN OVC033 M05/M08 A2944 RMK AO2
                 P0000 T10501083 =
2018-12-18 04:53 METAR KMLT 180953Z AUTO 31013G22KT 1SM -SN OVC031 M05/M08 A2943 RMK AO2 SLP978
                 P0000 T10501078 =
2018-12-18 04:42 METAR KMLT 180942Z AUTO 30014G21KT 1 1/4SM -SN OVC035 M04/M08 A2943 RMK AO2
                 P0000 T10441078 =
2018-12-18 04:20 METAR KMLT 180920Z AUTO 31015G21KT 1 3/4SM -SN OVC041 M04/M07 A2942 RMK AO2
                 P0000 T10441072 =
2018-12-18 03:53 METAR KMLT 180853Z AUTO 31016G25KT 2SM -SN OVC035 M04/M07 A2941 RMK AO2 SLP967
                 P0000 60000 T10391067 53017 =
2018-12-18 03:45 METAR KMLT 180845Z AUTO 31014G21KT 2SM -SN OVC031 M03/M07 A2940 RMK AO2 P0000
                 T10331067 =
2018-12-18 03:10 METAR KMLT 180810Z AUTO 30015G22KT 1 1/2SM -SN OVC025 M03/M06 A2938 RMK AO2
                 P0000 T10281061 =
2018-12-18 02:53 METAR KMLT 180753Z AUTO 31014G23KT 2 1/2SM -SN OVC026 M02/M06 A2938 RMK AO2
                 SLP957 P0000 T10221056 =
2018-12-18 02:51 METAR KMLT 180751Z AUTO 31015G23KT 2 1/2SM -SN OVC028 M02/M05 A2938 RMK AO2
                 P0000 =
2018-12-18 02:31 METAR KMLT 180731Z AUTO 31012G19KT 3SM -SN BKN029 OVC034 M02/M05 A2937 RMK AO2
                 P0000 T10221050 =
2018-12-18 02:18 METAR KMLT 180718Z AUTO 31009KT 2 1/2SM -SN OVC027 M02/M04 A2937 RMK AO2 P0000
                 T10171044 =
2018-12-18 01:53 METAR KMLT 180653Z AUTO 31010KT 2 1/2SM -SN BR FEW022 OVC034 M02/M04 A2936 RMK
                 AO2 SNB0557 SLP950 P0000 T10171039 =
2018-12-18 00:53 METAR KMLT 180553Z AUTO 33009KT 10SM BKN033 BKN046 OVC055 M01/M04 A2934 RMK AO2
                 SNE09 SLP944 P0000 60000 T10111039 11011 21017 55008 =
2018-12-18 00:04 METAR KMLT 180504Z AUTO 33007KT 6SM -SN BR OVC036 M02/M04 A2933 RMK AO2 P0000
                 T10171039 =
2018-12-17 23:53 METAR KMLT 180453Z AUTO 33007KT 3SM -SN BR OVC026 M02/M03 A2933 RMK AO2 SLP942
                 P0000 T10171033 400001050 =
2018-12-17 23:43 METAR KMLT 180443Z AUTO 32005KT 2SM -SN BR OVC020 M02/M03 A2934 RMK AO2 P0000
                 T10171033 =
2018-12-17 23:36 METAR KMLT 180436Z AUTO 33005KT 1 3/4SM -SN BR OVC018 M02/M03 A2934 RMK AO2
                 P0000 T10171033 =
2018-12-17 23:26 METAR KMLT 180426Z AUTO 33004KT 1 1/4SM -SN BR OVC016 M02/M03 A2934 RMK AO2
                 P0000 T10171033 =
2018-12-17 23:04 METAR KMLT 180404Z AUTO 34004KT 1 3/4SM -SN BR OVC020 M02/M03 A2935 RMK AO2
                 P0000 T10171033 =
2018-12-17 22:53 METAR KMLT 180353Z AUTO 32005KT 2SM -SN BR OVC022 M02/M03 A2935 RMK AO2 SLP948
                 P0000 T10171033 =
2018-12-17 22:33 METAR KMLT 180333Z AUTO 32004KT 3SM -SN BR OVC021 M02/M03 A2935 RMK AO2 P0000
                 T10171028 =
2018-12-17 22:19 METAR KMLT 180319Z AUTO 31004KT 2SM -SN BR OVC019 M02/M03 A2936 RMK AO2 P0000
                 T10171033 =
2018-12-17 22:02 METAR KMLT 180302Z AUTO 32005KT 1 1/2SM -SN BR OVC015 M02/M03 A2936 RMK AO2
                 P0000 T10171033 =
2018-12-17 21:53 METAR KMLT 180253Z AUTO 33004KT 1SM -SN BR VV012 M02/M03 A2936 RMK AO2 SLP953
                 P0000 60000 T10171033 56012 =
2018-12-17 21:50 METAR KMLT 180250Z AUTO 34006KT 1SM -SN BR VV011 M02/M03 A2937 RMK AO2 P0000 =
2018-12-17 21:10 METAR KMLT 180210Z AUTO 36003KT 3/4SM -SN BR FEW007 OVC013 M01/M03 A2938 RMK AO2
                 P0000 T10111028 =
2018-12-17 20:58 METAR KMLT 180158Z AUTO 34004KT 3/4SM -SN BR FEW007 OVC015 M02/M03 A2938 RMK AO2
                 P0000 T10171028 =
2018-12-17 20:53 METAR KMLT 180153Z AUTO 33004KT 1SM -SN BR VV017 M02/M03 A2938 RMK AO2 SLP958
                 P0000 T10171028 =
2018-12-17 20:42 METAR KMLT 180142Z AUTO 34004KT 1SM -SN BR FEW012 OVC024 M02/M03 A2938 RMK AO2
                 P0000 T10171028 =
2018-12-17 20:33 METAR KMLT 180133Z AUTO 33004KT 1 3/4SM -SN BR SCT014 OVC028 M02/M03 A2938 RMK
                 AO2 P0000 T10171028 =
2018-12-17 20:30 METAR KMLT 180130Z AUTO 32004KT 2SM -SN BR SCT012 SCT018 OVC030 M02/M03 A2938
                 RMK AO2 P0000 T10171028 =
2018-12-17 20:23 METAR KMLT 180123Z AUTO 32004KT 2SM -SN BR BKN014 BKN028 OVC037 M02/M03 A2939
                 RMK AO2 P0000 T10171028 =
2018-12-17 20:03 METAR KMLT 180103Z AUTO 32005KT 1 1/2SM -SN BR FEW012 SCT019 OVC025 M02/M03
                 A2940 RMK AO2 P0000 T10171028 =
2018-12-17 19:53 METAR KMLT 180053Z AUTO 31004KT 2 1/2SM -SN BR SCT019 OVC025 M02/M03 A2940 RMK
                 AO2 SLP965 P0000 T10171028 =
2018-12-17 19:37 METAR KMLT 180037Z AUTO 32004KT 2 1/2SM -SN BR OVC021 M02/M03 A2941 RMK AO2
                 P0000 T10171033 =
2018-12-17 19:07 METAR KMLT 180007Z AUTO 32006KT 8SM -SN OVC015 M02/M03 A2941 RMK AO2 P0000
                 T10171033 =
2018-12-17 18:53 METAR KMLT 172353Z AUTO 32005KT 6SM -SN BR OVC011 M02/M03 A2942 RMK AO2 SLP971
                 P0000 60004 T10171033 10000 21017 56009 =
2018-12-17 18:38 METAR KMLT 172338Z AUTO 31003KT 5SM -SN BR BKN011 OVC041 M02/M03 A2942 RMK AO2
                 P0000 T10171028 =
2018-12-17 18:29 METAR KMLT 172329Z AUTO 31003KT 5SM -SN BR SCT011 OVC041 M02/M03 A2942 RMK AO2
                 P0000 T10171028 =
2018-12-17 18:17 METAR KMLT 172317Z AUTO 32003KT 3SM -SN BR BKN011 OVC041 M02/M03 A2942 RMK AO2
                 P0000 T10171028 =
2018-12-17 18:14 METAR KMLT 172314Z AUTO 31003KT 2 1/2SM -SN BR SCT011 OVC041 M02/M03 A2943 RMK
                 AO2 P0000 T10171028 =
2018-12-17 18:01 METAR KMLT 172301Z AUTO 31004KT 1 3/4SM -SN BR FEW007 BKN030 OVC039 M02/M03
                 A2943 RMK AO2 P0000 T10171033 =
2018-12-17 17:53 METAR KMLT 172253Z AUTO 33004KT 2SM -SN BR FEW007 BKN025 OVC039 M01/M03 A2943
                 RMK AO2 SLP975 P0000 T10111033 =
2018-12-17 17:51 METAR KMLT 172251Z AUTO 33004KT 2SM -SN BR FEW007 BKN025 OVC039 M01/M03 A2943
                 RMK AO2 P0000 =
2018-12-17 17:44 METAR KMLT 172244Z AUTO 33004KT 1 3/4SM -SN BR FEW007 OVC021 M01/M03 A2943 RMK
                 AO2 P0000 T10111028 =
2018-12-17 17:29 METAR KMLT 172229Z AUTO 36004KT 1SM -SN BR FEW007 OVC015 M01/M03 A2943 RMK AO2
                 P0000 T10111028 =
2018-12-17 17:23 METAR KMLT 172223Z AUTO 04003KT 3/4SM -SN BR VV016 M01/M03 A2944 RMK AO2 P0000
                 T10111028 =
2018-12-17 17:08 METAR KMLT 172208Z AUTO 36004KT 1 1/4SM -SN BR FEW007 OVC018 M01/M03 A2944 RMK
                 AO2 P0000 T10111028 =
2018-12-17 17:03 METAR KMLT 172203Z AUTO 36004KT 1 1/2SM -SN BR OVC020 M01/M03 A2944 RMK AO2
                 P0000 T10111028 =
2018-12-17 16:53 METAR KMLT 172153Z AUTO 35004KT 1 1/4SM -SN BR FEW007 OVC018 M01/M03 A2944 RMK
                 AO2 SLP980 P0001 T10111028 =
2018-12-17 16:10 METAR KMLT 172110Z AUTO 33006KT 1 1/4SM -SN BR OVC022 M01/M03 A2945 RMK AO2
                 P0001 T10111028 =
2018-12-17 15:53 METAR KMLT 172053Z AUTO 34008KT 3/4SM -SN BR OVC020 M01/M03 A2945 RMK AO2 SLP983
                 P0000 60003 T10111028 56007 =
2018-12-17 15:25 METAR KMLT 172025Z AUTO 35007KT 1/2SM SN FZFG BKN015 OVC020 M01/M03 A2946 RMK
                 AO2 P0000 T10061028 =
2018-12-17 14:53 METAR KMLT 171953Z AUTO 35008KT 1/2SM SN FZFG VV010 M01/M02 A2946 RMK AO2 SLP986
                 P0002 T10061022 =
2018-12-17 14:50 METAR KMLT 171950Z AUTO 35006KT 1/2SM SN FZFG VV010 M01/M02 A2946 RMK AO2 P0002
                 =
2018-12-17 14:37 METAR KMLT 171937Z AUTO 36006KT 1/4SM SN FG FEW005 OVC009 00/M02 A2947 RMK AO2
                 P0002 T00001017 =
2018-12-17 13:53 METAR KMLT 171853Z AUTO 33004KT 1/4SM SN FG VV012 00/M01 A2948 RMK AO2 SLP991
                 P0001 T00001011 =
2018-12-17 13:41 METAR KMLT 171841Z AUTO 33005KT 1/4SM SN FG FEW006 OVC012 00/M02 A2948 RMK AO2
                 P0001 T00001017 =
2018-12-17 13:08 METAR KMLT 171808Z AUTO 32004KT 3/4SM -SN BR SCT006 OVC014 M01/M02 A2949 RMK AO2
                 P0000 T10061017 =

Support USWX by starting your Amazon purchase here.